sensor_id;sensor_type;location;lat;lon;timestamp;temperature;humidity
10129;DHT22;5104;50.720;7.044;2022-12-05T00:00:12;3.50;99.90
10129;DHT22;5104;50.720;7.044;2022-12-05T00:02:39;3.50;99.90
10129;DHT22;5104;50.720;7.044;2022-12-05T00:05:10;3.50;99.90
10129;DHT22;5104;50.720;7.044;2022-12-05T00:07:37;3.50;99.90
10129;DHT22;5104;50.720;7.044;2022-12-05T00:10:05;3.50;99.90
10129;DHT22;5104;50.720;7.044;2022-12-05T00:12:32;3.50;99.90
10129;DHT22;5104;50.720;7.044;2022-12-05T00:14:59;3.50;99.90
10129;DHT22;5104;50.720;7.044;2022-12-05T00:17:26;3.50;99.90
10129;DHT22;5104;50.720;7.044;2022-12-05T00:19:52;3.50;99.90
10129;DHT22;5104;50.720;7.044;2022-12-05T00:22:21;3.60;99.90
10129;DHT22;5104;50.720;7.044;2022-12-05T00:24:48;3.60;99.90
10129;DHT22;5104;50.720;7.044;2022-12-05T00:27:15;3.60;99.90
10129;DHT22;5104;50.720;7.044;2022-12-05T00:29:42;3.50;99.90
10129;DHT22;5104;50.720;7.044;2022-12-05T00:32:08;3.50;99.90
10129;DHT22;5104;50.720;7.044;2022-12-05T00:34:35;3.50;99.90
10129;DHT22;5104;50.720;7.044;2022-12-05T00:37:02;3.50;99.90
10129;DHT22;5104;50.720;7.044;2022-12-05T00:39:30;3.50;99.90
10129;DHT22;5104;50.720;7.044;2022-12-05T00:41:57;3.50;99.90
10129;DHT22;5104;50.720;7.044;2022-12-05T00:44:24;3.50;99.90
10129;DHT22;5104;50.720;7.044;2022-12-05T00:46:51;3.40;99.90
10129;DHT22;5104;50.720;7.044;2022-12-05T00:49:18;3.40;99.90
10129;DHT22;5104;50.720;7.044;2022-12-05T00:51:44;3.40;99.90
10129;DHT22;5104;50.720;7.044;2022-12-05T00:54:13;3.30;99.90
10129;DHT22;5104;50.720;7.044;2022-12-05T00:56:42;3.30;99.90
10129;DHT22;5104;50.720;7.044;2022-12-05T00:59:14;3.20;99.90
10129;DHT22;5104;50.720;7.044;2022-12-05T01:01:43;3.30;99.90
10129;DHT22;5104;50.720;7.044;2022-12-05T01:04:13;3.20;99.90
10129;DHT22;5104;50.720;7.044;2022-12-05T01:06:41;3.20;99.90
10129;DHT22;5104;50.720;7.044;2022-12-05T01:09:10;3.10;99.90
10129;DHT22;5104;50.720;7.044;2022-12-05T01:11:38;3.00;99.90
10129;DHT22;5104;50.720;7.044;2022-12-05T01:14:06;3.00;99.90
10129;DHT22;5104;50.720;7.044;2022-12-05T01:16:36;3.00;99.90
10129;DHT22;5104;50.720;7.044;2022-12-05T01:19:07;2.90;99.90
10129;DHT22;5104;50.720;7.044;2022-12-05T01:21:34;2.80;99.90
10129;DHT22;5104;50.720;7.044;2022-12-05T01:24:01;2.90;99.90
10129;DHT22;5104;50.720;7.044;2022-12-05T01:26:28;2.90;99.90
10129;DHT22;5104;50.720;7.044;2022-12-05T01:28:58;2.80;99.90
10129;DHT22;5104;50.720;7.044;2022-12-05T01:31:28;2.80;99.90
10129;DHT22;5104;50.720;7.044;2022-12-05T01:33:57;2.70;99.90
10129;DHT22;5104;50.720;7.044;2022-12-05T01:36:26;2.70;99.90
10129;DHT22;5104;50.720;7.044;2022-12-05T01:38:53;2.70;99.90
10129;DHT22;5104;50.720;7.044;2022-12-05T01:41:22;2.70;99.90
10129;DHT22;5104;50.720;7.044;2022-12-05T01:43:55;2.70;99.90
10129;DHT22;5104;50.720;7.044;2022-12-05T01:46:22;2.70;99.90
10129;DHT22;5104;50.720;7.044;2022-12-05T01:48:51;2.70;99.90
10129;DHT22;5104;50.720;7.044;2022-12-05T01:51:19;2.60;99.90
10129;DHT22;5104;50.720;7.044;2022-12-05T01:53:46;2.60;99.90
10129;DHT22;5104;50.720;7.044;2022-12-05T01:56:13;2.60;99.90
10129;DHT22;5104;50.720;7.044;2022-12-05T01:58:41;2.60;99.90
10129;DHT22;5104;50.720;7.044;2022-12-05T02:01:10;2.60;99.90
10129;DHT22;5104;50.720;7.044;2022-12-05T02:03:39;2.60;99.90
10129;DHT22;5104;50.720;7.044;2022-12-05T02:06:08;2.60;99.90
10129;DHT22;5104;50.720;7.044;2022-12-05T02:08:36;2.50;99.90
10129;DHT22;5104;50.720;7.044;2022-12-05T02:11:06;2.60;99.90
10129;DHT22;5104;50.720;7.044;2022-12-05T02:16:37;2.40;99.90
10129;DHT22;5104;50.720;7.044;2022-12-05T02:19:22;2.40;99.90
10129;DHT22;5104;50.720;7.044;2022-12-05T02:22:29;2.40;99.90
10129;DHT22;5104;50.720;7.044;2022-12-05T02:25:28;2.30;99.90
10129;DHT22;5104;50.720;7.044;2022-12-05T02:28:19;2.30;99.90
10129;DHT22;5104;50.720;7.044;2022-12-05T02:30:54;2.30;99.90
10129;DHT22;5104;50.720;7.044;2022-12-05T02:33:26;2.30;99.90
10129;DHT22;5104;50.720;7.044;2022-12-05T02:36:03;2.30;99.90
10129;DHT22;5104;50.720;7.044;2022-12-05T02:38:37;2.30;99.90
10129;DHT22;5104;50.720;7.044;2022-12-05T02:41:13;2.30;99.90
10129;DHT22;5104;50.720;7.044;2022-12-05T02:43:48;2.30;99.90
10129;DHT22;5104;50.720;7.044;2022-12-05T02:46:21;2.30;99.90
10129;DHT22;5104;50.720;7.044;2022-12-05T02:48:52;2.20;99.90
10129;DHT22;5104;50.720;7.044;2022-12-05T02:51:22;2.10;99.90
10129;DHT22;5104;50.720;7.044;2022-12-05T02:53:50;2.00;99.90
10129;DHT22;5104;50.720;7.044;2022-12-05T02:56:19;2.00;99.90
10129;DHT22;5104;50.720;7.044;2022-12-05T02:58:51;2.00;99.90
10129;DHT22;5104;50.720;7.044;2022-12-05T03:01:22;1.90;99.90
10129;DHT22;5104;50.720;7.044;2022-12-05T03:03:49;2.00;99.90
10129;DHT22;5104;50.720;7.044;2022-12-05T03:06:20;2.00;99.90
10129;DHT22;5104;50.720;7.044;2022-12-05T03:08:54;2.00;99.90
10129;DHT22;5104;50.720;7.044;2022-12-05T03:11:21;2.00;99.90
10129;DHT22;5104;50.720;7.044;2022-12-05T03:13:51;2.00;99.90
10129;DHT22;5104;50.720;7.044;2022-12-05T03:16:25;2.00;99.90
10129;DHT22;5104;50.720;7.044;2022-12-05T03:18:55;2.00;99.90
10129;DHT22;5104;50.720;7.044;2022-12-05T03:21:29;2.00;99.90
10129;DHT22;5104;50.720;7.044;2022-12-05T03:24:00;2.00;99.90
10129;DHT22;5104;50.720;7.044;2022-12-05T03:26:37;2.00;99.90
10129;DHT22;5104;50.720;7.044;2022-12-05T03:29:19;2.00;99.90
10129;DHT22;5104;50.720;7.044;2022-12-05T03:31:54;2.00;99.90
10129;DHT22;5104;50.720;7.044;2022-12-05T03:34:31;2.10;99.90
10129;DHT22;5104;50.720;7.044;2022-12-05T03:37:13;2.00;99.90
10129;DHT22;5104;50.720;7.044;2022-12-05T03:39:44;2.00;99.90
10129;DHT22;5104;50.720;7.044;2022-12-05T03:42:16;2.00;99.90
10129;DHT22;5104;50.720;7.044;2022-12-05T03:44:48;1.90;99.90
10129;DHT22;5104;50.720;7.044;2022-12-05T03:47:20;1.90;99.90
10129;DHT22;5104;50.720;7.044;2022-12-05T03:49:51;2.00;99.90
10129;DHT22;5104;50.720;7.044;2022-12-05T03:52:23;2.00;99.90
10129;DHT22;5104;50.720;7.044;2022-12-05T03:54:55;1.90;99.90
10129;DHT22;5104;50.720;7.044;2022-12-05T03:57:26;1.90;99.90
10129;DHT22;5104;50.720;7.044;2022-12-05T03:59:57;1.90;99.90
10129;DHT22;5104;50.720;7.044;2022-12-05T04:02:30;1.80;99.90
10129;DHT22;5104;50.720;7.044;2022-12-05T04:05:00;1.80;99.90
10129;DHT22;5104;50.720;7.044;2022-12-05T04:07:31;1.90;99.90
10129;DHT22;5104;50.720;7.044;2022-12-05T04:10:00;1.80;99.90
10129;DHT22;5104;50.720;7.044;2022-12-05T04:12:30;1.80;99.90
10129;DHT22;5104;50.720;7.044;2022-12-05T04:15:03;1.90;99.90
10129;DHT22;5104;50.720;7.044;2022-12-05T04:17:39;1.80;99.90
10129;DHT22;5104;50.720;7.044;2022-12-05T04:20:11;1.80;99.90
10129;DHT22;5104;50.720;7.044;2022-12-05T04:23:12;1.80;99.90
10129;DHT22;5104;50.720;7.044;2022-12-05T04:25:48;1.80;99.90
10129;DHT22;5104;50.720;7.044;2022-12-05T04:28:24;1.80;99.90
10129;DHT22;5104;50.720;7.044;2022-12-05T04:30:55;1.80;99.90
10129;DHT22;5104;50.720;7.044;2022-12-05T04:33:33;1.80;99.90
10129;DHT22;5104;50.720;7.044;2022-12-05T04:36:06;1.80;99.90
10129;DHT22;5104;50.720;7.044;2022-12-05T04:38:40;1.80;99.90
10129;DHT22;5104;50.720;7.044;2022-12-05T04:41:12;1.80;99.90
10129;DHT22;5104;50.720;7.044;2022-12-05T04:43:43;1.80;99.90
10129;DHT22;5104;50.720;7.044;2022-12-05T04:46:13;1.80;99.90
10129;DHT22;5104;50.720;7.044;2022-12-05T04:48:46;1.80;99.90
10129;DHT22;5104;50.720;7.044;2022-12-05T04:51:17;1.90;99.90
10129;DHT22;5104;50.720;7.044;2022-12-05T04:53:48;1.90;99.90
10129;DHT22;5104;50.720;7.044;2022-12-05T04:56:18;1.90;99.90
10129;DHT22;5104;50.720;7.044;2022-12-05T04:58:45;1.90;99.90
10129;DHT22;5104;50.720;7.044;2022-12-05T05:01:16;1.90;99.90
10129;DHT22;5104;50.720;7.044;2022-12-05T05:03:50;1.90;99.90
10129;DHT22;5104;50.720;7.044;2022-12-05T05:06:18;1.80;99.90
10129;DHT22;5104;50.720;7.044;2022-12-05T05:08:49;1.80;99.90
10129;DHT22;5104;50.720;7.044;2022-12-05T05:11:20;1.70;99.90
10129;DHT22;5104;50.720;7.044;2022-12-05T05:13:48;1.70;99.90
10129;DHT22;5104;50.720;7.044;2022-12-05T05:16:16;1.70;99.90
10129;DHT22;5104;50.720;7.044;2022-12-05T05:18:46;1.70;99.90
10129;DHT22;5104;50.720;7.044;2022-12-05T05:21:15;1.60;99.90
10129;DHT22;5104;50.720;7.044;2022-12-05T05:23:43;1.60;99.90
10129;DHT22;5104;50.720;7.044;2022-12-05T05:26:10;1.50;99.90
10129;DHT22;5104;50.720;7.044;2022-12-05T05:28:37;1.60;99.90
10129;DHT22;5104;50.720;7.044;2022-12-05T05:31:05;1.60;99.90
10129;DHT22;5104;50.720;7.044;2022-12-05T05:33:32;1.60;99.90
10129;DHT22;5104;50.720;7.044;2022-12-05T05:36:03;1.60;99.90
10129;DHT22;5104;50.720;7.044;2022-12-05T05:38:30;1.70;99.90
10129;DHT22;5104;50.720;7.044;2022-12-05T05:41:00;1.60;99.90
10129;DHT22;5104;50.720;7.044;2022-12-05T05:43:27;1.60;99.90
10129;DHT22;5104;50.720;7.044;2022-12-05T05:45:54;1.70;99.90
10129;DHT22;5104;50.720;7.044;2022-12-05T05:48:20;1.70;99.90
10129;DHT22;5104;50.720;7.044;2022-12-05T05:50:47;1.70;99.90
10129;DHT22;5104;50.720;7.044;2022-12-05T05:53:16;1.90;99.90
10129;DHT22;5104;50.720;7.044;2022-12-05T05:55:42;1.90;99.90
10129;DHT22;5104;50.720;7.044;2022-12-05T05:58:09;1.90;99.90
10129;DHT22;5104;50.720;7.044;2022-12-05T06:00:36;1.90;99.90
10129;DHT22;5104;50.720;7.044;2022-12-05T06:03:03;1.80;99.90
10129;DHT22;5104;50.720;7.044;2022-12-05T06:05:30;1.80;99.90
10129;DHT22;5104;50.720;7.044;2022-12-05T06:07:57;1.80;99.90
10129;DHT22;5104;50.720;7.044;2022-12-05T06:10:25;1.80;99.90
10129;DHT22;5104;50.720;7.044;2022-12-05T06:12:54;1.90;99.90
10129;DHT22;5104;50.720;7.044;2022-12-05T06:15:21;2.00;99.90
10129;DHT22;5104;50.720;7.044;2022-12-05T06:17:48;2.10;99.90
10129;DHT22;5104;50.720;7.044;2022-12-05T06:20:15;2.10;99.90
10129;DHT22;5104;50.720;7.044;2022-12-05T06:22:42;2.10;99.90
10129;DHT22;5104;50.720;7.044;2022-12-05T06:25:09;2.20;99.90
10129;DHT22;5104;50.720;7.044;2022-12-05T06:27:37;2.20;99.90
10129;DHT22;5104;50.720;7.044;2022-12-05T06:30:05;2.20;99.90
10129;DHT22;5104;50.720;7.044;2022-12-05T06:32:32;2.20;99.90
10129;DHT22;5104;50.720;7.044;2022-12-05T06:34:59;2.20;99.90
10129;DHT22;5104;50.720;7.044;2022-12-05T06:37:35;2.20;99.90
10129;DHT22;5104;50.720;7.044;2022-12-05T06:40:02;2.20;99.90
10129;DHT22;5104;50.720;7.044;2022-12-05T06:42:30;2.30;99.90
10129;DHT22;5104;50.720;7.044;2022-12-05T06:44:58;2.20;99.90
10129;DHT22;5104;50.720;7.044;2022-12-05T06:47:25;2.20;99.90
10129;DHT22;5104;50.720;7.044;2022-12-05T06:49:52;2.30;99.90
10129;DHT22;5104;50.720;7.044;2022-12-05T06:52:18;2.30;99.90
10129;DHT22;5104;50.720;7.044;2022-12-05T06:54:45;2.30;99.90
10129;DHT22;5104;50.720;7.044;2022-12-05T06:57:12;2.30;99.90
10129;DHT22;5104;50.720;7.044;2022-12-05T06:59:39;2.30;99.90
10129;DHT22;5104;50.720;7.044;2022-12-05T07:02:08;2.30;99.90
10129;DHT22;5104;50.720;7.044;2022-12-05T07:04:35;2.30;99.90
10129;DHT22;5104;50.720;7.044;2022-12-05T07:07:02;2.30;99.90
10129;DHT22;5104;50.720;7.044;2022-12-05T07:09:29;2.40;99.90
10129;DHT22;5104;50.720;7.044;2022-12-05T07:12:23;2.40;99.90
10129;DHT22;5104;50.720;7.044;2022-12-05T07:14:50;2.40;99.90
10129;DHT22;5104;50.720;7.044;2022-12-05T07:17:17;2.40;99.90
10129;DHT22;5104;50.720;7.044;2022-12-05T07:19:46;2.40;99.90
10129;DHT22;5104;50.720;7.044;2022-12-05T07:22:13;2.40;99.90
10129;DHT22;5104;50.720;7.044;2022-12-05T07:24:40;2.40;99.90
10129;DHT22;5104;50.720;7.044;2022-12-05T07:27:07;2.50;99.90
10129;DHT22;5104;50.720;7.044;2022-12-05T07:29:35;2.50;99.90
10129;DHT22;5104;50.720;7.044;2022-12-05T07:32:02;2.50;99.90
10129;DHT22;5104;50.720;7.044;2022-12-05T07:34:29;2.40;99.90
10129;DHT22;5104;50.720;7.044;2022-12-05T07:36:56;2.50;99.90
10129;DHT22;5104;50.720;7.044;2022-12-05T07:39:23;2.40;99.90
10129;DHT22;5104;50.720;7.044;2022-12-05T07:41:50;2.50;99.90
10129;DHT22;5104;50.720;7.044;2022-12-05T07:44:17;2.50;99.90
10129;DHT22;5104;50.720;7.044;2022-12-05T07:46:45;2.50;99.90
10129;DHT22;5104;50.720;7.044;2022-12-05T07:49:12;2.50;99.90
10129;DHT22;5104;50.720;7.044;2022-12-05T07:51:40;2.50;99.90
10129;DHT22;5104;50.720;7.044;2022-12-05T07:54:07;2.50;99.90
10129;DHT22;5104;50.720;7.044;2022-12-05T07:56:34;2.50;99.90
10129;DHT22;5104;50.720;7.044;2022-12-05T07:59:00;2.60;99.90
10129;DHT22;5104;50.720;7.044;2022-12-05T08:01:28;2.60;99.90
10129;DHT22;5104;50.720;7.044;2022-12-05T08:03:58;2.60;99.90
10129;DHT22;5104;50.720;7.044;2022-12-05T08:06:26;2.70;99.90
10129;DHT22;5104;50.720;7.044;2022-12-05T08:08:54;2.70;99.90
10129;DHT22;5104;50.720;7.044;2022-12-05T08:11:23;2.80;99.90
10129;DHT22;5104;50.720;7.044;2022-12-05T08:13:51;2.80;99.90
10129;DHT22;5104;50.720;7.044;2022-12-05T08:16:19;2.80;99.90
10129;DHT22;5104;50.720;7.044;2022-12-05T08:18:46;2.70;99.90
10129;DHT22;5104;50.720;7.044;2022-12-05T08:21:17;2.60;99.90
10129;DHT22;5104;50.720;7.044;2022-12-05T08:23:45;2.70;99.90
10129;DHT22;5104;50.720;7.044;2022-12-05T08:26:13;2.60;99.90
10129;DHT22;5104;50.720;7.044;2022-12-05T08:28:41;2.70;99.90
10129;DHT22;5104;50.720;7.044;2022-12-05T08:31:10;2.60;99.90
10129;DHT22;5104;50.720;7.044;2022-12-05T08:33:38;2.60;99.90
10129;DHT22;5104;50.720;7.044;2022-12-05T08:36:07;2.60;99.90
10129;DHT22;5104;50.720;7.044;2022-12-05T08:38:36;2.70;99.90
10129;DHT22;5104;50.720;7.044;2022-12-05T08:41:05;2.70;99.90
10129;DHT22;5104;50.720;7.044;2022-12-05T08:43:33;2.90;99.90
10129;DHT22;5104;50.720;7.044;2022-12-05T08:46:00;2.90;99.90
10129;DHT22;5104;50.720;7.044;2022-12-05T08:48:28;2.90;99.90
10129;DHT22;5104;50.720;7.044;2022-12-05T08:50:56;3.00;99.90
10129;DHT22;5104;50.720;7.044;2022-12-05T08:53:23;3.00;99.90
10129;DHT22;5104;50.720;7.044;2022-12-05T08:55:51;3.10;99.90
10129;DHT22;5104;50.720;7.044;2022-12-05T08:58:18;3.20;99.90
10129;DHT22;5104;50.720;7.044;2022-12-05T09:00:45;3.30;99.90
10129;DHT22;5104;50.720;7.044;2022-12-05T09:03:12;3.50;99.90
10129;DHT22;5104;50.720;7.044;2022-12-05T09:05:39;3.40;99.90
10129;DHT22;5104;50.720;7.044;2022-12-05T09:08:06;3.50;99.90
10129;DHT22;5104;50.720;7.044;2022-12-05T09:10:33;3.60;99.90
10129;DHT22;5104;50.720;7.044;2022-12-05T09:13:01;3.60;99.90
10129;DHT22;5104;50.720;7.044;2022-12-05T09:15:28;3.60;99.90
10129;DHT22;5104;50.720;7.044;2022-12-05T09:17:55;3.50;99.90
10129;DHT22;5104;50.720;7.044;2022-12-05T09:20:22;3.50;99.90
10129;DHT22;5104;50.720;7.044;2022-12-05T09:22:51;3.60;99.90
10129;DHT22;5104;50.720;7.044;2022-12-05T09:25:18;3.50;99.90
10129;DHT22;5104;50.720;7.044;2022-12-05T09:27:44;3.50;99.90
10129;DHT22;5104;50.720;7.044;2022-12-05T09:30:14;3.60;99.90
10129;DHT22;5104;50.720;7.044;2022-12-05T09:32:41;3.60;99.90
10129;DHT22;5104;50.720;7.044;2022-12-05T09:35:08;3.60;99.90
10129;DHT22;5104;50.720;7.044;2022-12-05T09:37:35;3.70;99.90
10129;DHT22;5104;50.720;7.044;2022-12-05T09:40:03;3.60;99.90
10129;DHT22;5104;50.720;7.044;2022-12-05T09:42:37;3.60;99.90
10129;DHT22;5104;50.720;7.044;2022-12-05T09:45:16;3.50;99.90
10129;DHT22;5104;50.720;7.044;2022-12-05T09:47:54;3.60;99.90
10129;DHT22;5104;50.720;7.044;2022-12-05T09:50:24;3.60;99.90
10129;DHT22;5104;50.720;7.044;2022-12-05T09:53:03;3.50;99.90
10129;DHT22;5104;50.720;7.044;2022-12-05T09:55:37;3.50;99.90
10129;DHT22;5104;50.720;7.044;2022-12-05T09:58:20;3.60;99.90
10129;DHT22;5104;50.720;7.044;2022-12-05T10:00:52;3.70;99.90
10129;DHT22;5104;50.720;7.044;2022-12-05T10:03:24;3.60;99.90
10129;DHT22;5104;50.720;7.044;2022-12-05T10:06:01;3.70;99.90
10129;DHT22;5104;50.720;7.044;2022-12-05T10:08:37;3.70;99.90
10129;DHT22;5104;50.720;7.044;2022-12-05T10:11:11;3.80;99.90
10129;DHT22;5104;50.720;7.044;2022-12-05T10:13:46;3.80;99.90
10129;DHT22;5104;50.720;7.044;2022-12-05T10:16:19;3.70;99.90
10129;DHT22;5104;50.720;7.044;2022-12-05T10:18:51;3.80;99.90
10129;DHT22;5104;50.720;7.044;2022-12-05T10:21:24;3.90;99.90
10129;DHT22;5104;50.720;7.044;2022-12-05T10:23:55;3.90;99.90
10129;DHT22;5104;50.720;7.044;2022-12-05T10:26:25;4.00;99.90
10129;DHT22;5104;50.720;7.044;2022-12-05T10:28:57;4.00;99.90
10129;DHT22;5104;50.720;7.044;2022-12-05T10:31:30;4.00;99.90
10129;DHT22;5104;50.720;7.044;2022-12-05T10:34:03;4.00;99.90
10129;DHT22;5104;50.720;7.044;2022-12-05T10:36:30;3.90;99.90
10129;DHT22;5104;50.720;7.044;2022-12-05T10:38:58;4.00;99.90
10129;DHT22;5104;50.720;7.044;2022-12-05T10:41:25;4.10;99.90
10129;DHT22;5104;50.720;7.044;2022-12-05T10:43:53;4.20;99.90
10129;DHT22;5104;50.720;7.044;2022-12-05T10:46:20;4.30;99.90
10129;DHT22;5104;50.720;7.044;2022-12-05T10:48:49;4.20;99.90
10129;DHT22;5104;50.720;7.044;2022-12-05T10:51:17;4.20;99.90
10129;DHT22;5104;50.720;7.044;2022-12-05T10:53:48;4.30;99.90
10129;DHT22;5104;50.720;7.044;2022-12-05T10:56:34;4.30;99.90
10129;DHT22;5104;50.720;7.044;2022-12-05T10:59:02;4.40;99.90
10129;DHT22;5104;50.720;7.044;2022-12-05T11:01:29;4.50;99.90
10129;DHT22;5104;50.720;7.044;2022-12-05T11:03:58;4.50;99.90
10129;DHT22;5104;50.720;7.044;2022-12-05T11:06:28;4.60;99.90
10129;DHT22;5104;50.720;7.044;2022-12-05T11:08:56;4.40;99.90
10129;DHT22;5104;50.720;7.044;2022-12-05T11:11:26;4.30;99.90
10129;DHT22;5104;50.720;7.044;2022-12-05T11:13:54;4.30;99.90
10129;DHT22;5104;50.720;7.044;2022-12-05T11:16:23;4.20;99.90
10129;DHT22;5104;50.720;7.044;2022-12-05T11:18:50;4.20;99.90
10129;DHT22;5104;50.720;7.044;2022-12-05T11:21:19;4.10;99.90
10129;DHT22;5104;50.720;7.044;2022-12-05T11:23:47;4.00;99.90
10129;DHT22;5104;50.720;7.044;2022-12-05T11:26:18;4.10;99.90
10129;DHT22;5104;50.720;7.044;2022-12-05T11:28:46;4.20;99.90
10129;DHT22;5104;50.720;7.044;2022-12-05T11:31:26;4.30;99.90
10129;DHT22;5104;50.720;7.044;2022-12-05T11:34:11;4.30;99.90
10129;DHT22;5104;50.720;7.044;2022-12-05T11:36:43;4.30;99.90
10129;DHT22;5104;50.720;7.044;2022-12-05T11:39:12;4.40;99.90
10129;DHT22;5104;50.720;7.044;2022-12-05T11:41:56;4.40;99.90
10129;DHT22;5104;50.720;7.044;2022-12-05T11:44:54;4.40;99.90
10129;DHT22;5104;50.720;7.044;2022-12-05T11:47:37;4.30;99.90
10129;DHT22;5104;50.720;7.044;2022-12-05T11:50:18;4.30;99.90
10129;DHT22;5104;50.720;7.044;2022-12-05T11:52:56;4.30;99.90
10129;DHT22;5104;50.720;7.044;2022-12-05T11:55:29;4.40;99.90
10129;DHT22;5104;50.720;7.044;2022-12-05T11:58:11;4.40;99.90
10129;DHT22;5104;50.720;7.044;2022-12-05T12:00:51;4.30;99.90
10129;DHT22;5104;50.720;7.044;2022-12-05T12:03:47;4.40;99.90
10129;DHT22;5104;50.720;7.044;2022-12-05T12:06:27;4.50;99.90
10129;DHT22;5104;50.720;7.044;2022-12-05T12:09:18;4.30;99.90
10129;DHT22;5104;50.720;7.044;2022-12-05T12:11:56;4.30;99.90
10129;DHT22;5104;50.720;7.044;2022-12-05T12:14:30;4.20;99.90
10129;DHT22;5104;50.720;7.044;2022-12-05T12:17:08;4.50;99.90
10129;DHT22;5104;50.720;7.044;2022-12-05T12:20:06;4.60;99.90
10129;DHT22;5104;50.720;7.044;2022-12-05T12:22:47;4.40;99.90
10129;DHT22;5104;50.720;7.044;2022-12-05T12:25:27;4.50;99.90
10129;DHT22;5104;50.720;7.044;2022-12-05T12:28:05;4.70;99.90
10129;DHT22;5104;50.720;7.044;2022-12-05T12:30:45;4.80;99.90
10129;DHT22;5104;50.720;7.044;2022-12-05T12:33:27;4.60;99.90
10129;DHT22;5104;50.720;7.044;2022-12-05T12:35:58;4.50;99.90
10129;DHT22;5104;50.720;7.044;2022-12-05T12:41:47;4.40;99.90
10129;DHT22;5104;50.720;7.044;2022-12-05T12:44:44;4.20;99.90
10129;DHT22;5104;50.720;7.044;2022-12-05T12:47:21;4.10;99.90
10129;DHT22;5104;50.720;7.044;2022-12-05T12:50:00;4.10;99.90
10129;DHT22;5104;50.720;7.044;2022-12-05T12:52:40;4.00;99.90
10129;DHT22;5104;50.720;7.044;2022-12-05T12:55:20;4.00;99.90
10129;DHT22;5104;50.720;7.044;2022-12-05T12:58:02;4.10;99.90
10129;DHT22;5104;50.720;7.044;2022-12-05T13:00:41;4.20;99.90
10129;DHT22;5104;50.720;7.044;2022-12-05T13:03:15;4.30;99.90
10129;DHT22;5104;50.720;7.044;2022-12-05T13:05:45;4.40;99.90
10129;DHT22;5104;50.720;7.044;2022-12-05T13:08:19;4.30;99.90
10129;DHT22;5104;50.720;7.044;2022-12-05T13:10:47;4.30;99.90
10129;DHT22;5104;50.720;7.044;2022-12-05T13:13:19;4.40;99.90
10129;DHT22;5104;50.720;7.044;2022-12-05T13:15:49;4.40;99.90
10129;DHT22;5104;50.720;7.044;2022-12-05T13:18:19;4.60;99.90
10129;DHT22;5104;50.720;7.044;2022-12-05T13:20:49;4.60;99.90
10129;DHT22;5104;50.720;7.044;2022-12-05T13:23:20;4.70;99.90
10129;DHT22;5104;50.720;7.044;2022-12-05T13:25:49;4.70;99.90
10129;DHT22;5104;50.720;7.044;2022-12-05T13:28:26;4.60;99.90
10129;DHT22;5104;50.720;7.044;2022-12-05T13:30:53;4.50;99.90
10129;DHT22;5104;50.720;7.044;2022-12-05T13:33:29;4.40;99.90
10129;DHT22;5104;50.720;7.044;2022-12-05T13:36:03;4.40;99.90
10129;DHT22;5104;50.720;7.044;2022-12-05T13:38:48;4.60;99.90
10129;DHT22;5104;50.720;7.044;2022-12-05T13:41:40;4.50;99.90
10129;DHT22;5104;50.720;7.044;2022-12-05T13:44:30;4.70;99.90
10129;DHT22;5104;50.720;7.044;2022-12-05T13:46:59;4.60;99.90
10129;DHT22;5104;50.720;7.044;2022-12-05T13:49:32;4.70;99.90
10129;DHT22;5104;50.720;7.044;2022-12-05T13:52:05;4.60;99.90
10129;DHT22;5104;50.720;7.044;2022-12-05T13:54:34;4.50;99.90
10129;DHT22;5104;50.720;7.044;2022-12-05T13:57:45;4.50;99.90
10129;DHT22;5104;50.720;7.044;2022-12-05T14:00:31;4.40;99.90
10129;DHT22;5104;50.720;7.044;2022-12-05T14:03:05;4.40;99.90
10129;DHT22;5104;50.720;7.044;2022-12-05T14:05:47;4.30;99.90
10129;DHT22;5104;50.720;7.044;2022-12-05T14:08:51;4.20;99.90
10129;DHT22;5104;50.720;7.044;2022-12-05T14:11:18;4.20;99.90
10129;DHT22;5104;50.720;7.044;2022-12-05T14:13:45;4.20;99.90
10129;DHT22;5104;50.720;7.044;2022-12-05T14:16:47;4.10;99.90
10129;DHT22;5104;50.720;7.044;2022-12-05T14:19:47;4.20;99.90
10129;DHT22;5104;50.720;7.044;2022-12-05T14:22:39;4.20;99.90
10129;DHT22;5104;50.720;7.044;2022-12-05T14:25:12;4.00;99.90
10129;DHT22;5104;50.720;7.044;2022-12-05T14:27:54;4.00;99.90
10129;DHT22;5104;50.720;7.044;2022-12-05T14:30:30;4.00;99.90
10129;DHT22;5104;50.720;7.044;2022-12-05T14:33:01;4.10;99.90
10129;DHT22;5104;50.720;7.044;2022-12-05T14:35:30;4.00;99.90
10129;DHT22;5104;50.720;7.044;2022-12-05T14:38:00;3.90;99.90
10129;DHT22;5104;50.720;7.044;2022-12-05T14:40:30;3.80;99.90
10129;DHT22;5104;50.720;7.044;2022-12-05T14:43:00;3.80;99.90
10129;DHT22;5104;50.720;7.044;2022-12-05T14:45:32;3.80;99.90
10129;DHT22;5104;50.720;7.044;2022-12-05T14:48:03;3.80;99.90
10129;DHT22;5104;50.720;7.044;2022-12-05T14:50:49;3.80;99.90
10129;DHT22;5104;50.720;7.044;2022-12-05T14:53:33;3.60;99.90
10129;DHT22;5104;50.720;7.044;2022-12-05T14:56:11;3.70;99.90
10129;DHT22;5104;50.720;7.044;2022-12-05T14:58:43;3.70;99.90
10129;DHT22;5104;50.720;7.044;2022-12-05T15:01:16;3.70;99.90
10129;DHT22;5104;50.720;7.044;2022-12-05T15:04:06;3.60;99.90
10129;DHT22;5104;50.720;7.044;2022-12-05T15:06:36;3.60;99.90
10129;DHT22;5104;50.720;7.044;2022-12-05T15:09:26;3.60;99.90
10129;DHT22;5104;50.720;7.044;2022-12-05T15:11:55;3.60;99.90
10129;DHT22;5104;50.720;7.044;2022-12-05T15:14:24;3.60;99.90
10129;DHT22;5104;50.720;7.044;2022-12-05T15:16:54;3.50;99.90
10129;DHT22;5104;50.720;7.044;2022-12-05T15:19:28;3.60;99.90
10129;DHT22;5104;50.720;7.044;2022-12-05T15:21:57;3.60;99.90
10129;DHT22;5104;50.720;7.044;2022-12-05T15:24:26;3.60;99.90
10129;DHT22;5104;50.720;7.044;2022-12-05T15:26:54;3.60;99.90
10129;DHT22;5104;50.720;7.044;2022-12-05T15:29:26;3.60;99.90
10129;DHT22;5104;50.720;7.044;2022-12-05T15:31:56;3.70;99.90
10129;DHT22;5104;50.720;7.044;2022-12-05T15:34:28;3.70;99.90
10129;DHT22;5104;50.720;7.044;2022-12-05T15:36:59;3.70;99.90
10129;DHT22;5104;50.720;7.044;2022-12-05T15:39:28;3.70;99.90
10129;DHT22;5104;50.720;7.044;2022-12-05T15:41:56;3.60;99.90
10129;DHT22;5104;50.720;7.044;2022-12-05T15:44:28;3.70;99.90
10129;DHT22;5104;50.720;7.044;2022-12-05T15:46:55;3.70;99.90
10129;DHT22;5104;50.720;7.044;2022-12-05T15:49:26;3.60;99.90
10129;DHT22;5104;50.720;7.044;2022-12-05T15:51:59;3.60;99.90
10129;DHT22;5104;50.720;7.044;2022-12-05T15:54:31;3.60;99.90
10129;DHT22;5104;50.720;7.044;2022-12-05T15:57:03;3.60;99.90
10129;DHT22;5104;50.720;7.044;2022-12-05T15:59:35;3.60;99.90
10129;DHT22;5104;50.720;7.044;2022-12-05T16:02:11;3.60;99.90
10129;DHT22;5104;50.720;7.044;2022-12-05T16:04:45;3.60;99.90
10129;DHT22;5104;50.720;7.044;2022-12-05T16:07:14;3.50;99.90
10129;DHT22;5104;50.720;7.044;2022-12-05T16:09:43;3.60;99.90
10129;DHT22;5104;50.720;7.044;2022-12-05T16:12:19;3.60;99.90
10129;DHT22;5104;50.720;7.044;2022-12-05T16:14:49;3.60;99.90
10129;DHT22;5104;50.720;7.044;2022-12-05T16:17:18;3.60;99.90
10129;DHT22;5104;50.720;7.044;2022-12-05T16:19:47;3.60;99.90
10129;DHT22;5104;50.720;7.044;2022-12-05T16:22:20;3.60;99.90
10129;DHT22;5104;50.720;7.044;2022-12-05T16:24:54;3.60;99.90
10129;DHT22;5104;50.720;7.044;2022-12-05T16:27:24;3.60;99.90
10129;DHT22;5104;50.720;7.044;2022-12-05T16:30:17;3.50;99.90
10129;DHT22;5104;50.720;7.044;2022-12-05T16:32:45;3.60;99.90
10129;DHT22;5104;50.720;7.044;2022-12-05T16:35:35;3.60;99.90
10129;DHT22;5104;50.720;7.044;2022-12-05T16:38:04;3.50;99.90